createdAt,value
2023-04-25T00:01:25.192Z,99999.25
2023-04-25T00:03:52.961Z,100003.66
2023-04-25T00:06:21.042Z,100015.22
2023-04-25T00:08:49.045Z,99998.06
2023-04-25T00:11:16.493Z,99996.41
2023-04-25T00:13:43.903Z,99998.88
2023-04-25T00:16:11.876Z,99991.78
2023-04-25T00:18:39.414Z,99998.53
2023-04-25T00:21:07.392Z,100001.38
2023-04-25T00:23:36.673Z,99991.53
2023-04-25T00:26:04.278Z,100003.88
2023-04-25T00:28:31.821Z,99978.25
2023-04-25T00:30:59.211Z,99998.09
2023-04-25T00:33:26.722Z,99996.09
2023-04-25T00:35:54.342Z,99989.72
2023-04-25T00:38:21.752Z,99984.47
2023-04-25T00:40:49.252Z,99979.56
2023-04-25T00:43:16.760Z,99961.56
2023-04-25T00:45:44.338Z,99976.44
2023-04-25T00:48:12.498Z,99972.81
2023-04-25T00:50:39.817Z,99967.47
2023-04-25T00:53:07.850Z,99962.50
2023-04-25T00:55:37.191Z,99958.97
2023-04-25T00:58:04.602Z,99961.34
2023-04-25T01:00:32.358Z,99962.25
2023-04-25T01:03:01.333Z,99963.16
2023-04-25T01:05:29.048Z,99962.13
2023-04-25T01:08:00.744Z,99957.31
2023-04-25T01:10:28.653Z,99954.22
2023-04-25T01:12:56.127Z,99948.50
2023-04-25T01:15:23.511Z,99950.47
2023-04-25T01:17:51.028Z,99951.63
2023-04-25T01:20:19.360Z,99935.63
2023-04-25T01:22:47.001Z,99945.63
2023-04-25T01:25:15.460Z,99947.94
2023-04-25T01:27:43.348Z,99945.31
2023-04-25T01:30:11.335Z,99944.31
2023-04-25T01:32:43.952Z,99953.84
2023-04-25T01:35:13.060Z,99935.56
2023-04-25T01:37:41.739Z,99950.38
2023-04-25T01:40:11.633Z,99943.03
2023-04-25T01:42:42.350Z,99950.53
2023-04-25T01:45:11.768Z,99949.34
2023-04-25T01:47:44.824Z,99950.84
2023-04-25T01:50:12.515Z,99953.38
2023-04-25T01:52:40.520Z,99944.63
2023-04-25T01:55:09.063Z,99946.28
2023-04-25T01:57:38.890Z,99931.34
2023-04-25T02:00:08.064Z,99955.88
2023-04-25T02:02:41.278Z,99930.47
2023-04-25T02:05:24.187Z,99933.16
2023-04-25T02:07:52.619Z,99939.91
2023-04-25T02:10:20.170Z,99921.25
2023-04-25T02:12:58.163Z,99915.81
2023-04-25T02:15:42.459Z,99909.59
2023-04-25T02:18:20.273Z,99907.88
2023-04-25T02:20:48.016Z,99889.31
2023-04-25T02:23:16.479Z,99894.59
2023-04-25T02:25:44.063Z,99901.66
2023-04-25T02:28:11.931Z,99898.91
2023-04-25T02:30:39.433Z,99902.31
2023-04-25T02:33:06.973Z,99894.81
2023-04-25T02:35:34.514Z,99914.94
2023-04-25T02:38:01.862Z,99920.78
2023-04-25T02:40:29.473Z,99907.97
2023-04-25T02:42:56.902Z,99901.66
2023-04-25T02:45:24.355Z,99882.22
2023-04-25T02:47:51.818Z,99864.25
2023-04-25T02:50:20.307Z,99871.38
2023-04-25T02:52:47.885Z,99848.41
2023-04-25T02:55:19.704Z,99862.66
2023-04-25T02:57:47.817Z,99859.53
2023-04-25T03:00:23.469Z,99866.38
2023-04-25T03:03:09.950Z,99870.97
2023-04-25T03:05:37.449Z,99859.53
2023-04-25T03:08:05.129Z,99842.97
2023-04-25T03:10:34.095Z,99850.03
2023-04-25T03:13:05.477Z,99868.59
2023-04-25T03:15:32.930Z,99860.47
2023-04-25T03:18:00.405Z,99877.75
2023-04-25T03:20:28.149Z,99880.56
2023-04-25T03:22:55.585Z,99897.34
2023-04-25T03:25:23.624Z,99887.50
2023-04-25T03:27:51.058Z,99902.59
2023-04-25T03:30:18.928Z,99883.25
2023-04-25T03:32:46.820Z,99891.91
2023-04-25T03:35:17.457Z,99887.31
2023-04-25T03:37:46.642Z,99885.91
2023-04-25T03:40:19.052Z,99879.22
2023-04-25T03:43:06.761Z,99887.13
2023-04-25T03:45:35.130Z,99881.13
2023-04-25T03:48:02.687Z,99883.63
2023-04-25T03:50:31.383Z,99868.78
2023-04-25T03:52:58.810Z,99854.63
2023-04-25T03:55:28.923Z,99864.28
2023-04-25T03:57:56.820Z,99884.75
2023-04-25T04:00:24.466Z,99884.75
2023-04-25T04:02:53.503Z,99893.72
2023-04-25T04:05:21.106Z,99896.63
2023-04-25T04:07:54.708Z,99899.28
2023-04-25T04:10:24.237Z,99897.66
2023-04-25T04:12:51.648Z,99892.00
2023-04-25T04:15:19.318Z,99894.19
2023-04-25T04:17:48.952Z,99896.78
2023-04-25T04:20:16.608Z,99905.38
2023-04-25T04:22:44.227Z,99891.81
2023-04-25T04:25:14.269Z,99904.25
2023-04-25T04:28:12.227Z,99887.34
2023-04-25T04:30:52.368Z,99894.41
2023-04-25T04:33:20.674Z,99875.28
2023-04-25T04:35:53.438Z,99867.28
2023-04-25T04:38:22.753Z,99874.25
2023-04-25T04:40:51.433Z,99883.69
2023-04-25T04:43:27.032Z,99878.63
2023-04-25T04:46:08.659Z,99903.72
2023-04-25T04:48:54.905Z,99906.88
2023-04-25T04:51:50.686Z,99917.16
2023-04-25T04:54:39.352Z,99905.28
2023-04-25T04:57:15.680Z,99942.50
2023-04-25T04:59:57.988Z,99961.06
2023-04-25T05:02:43.800Z,99982.47
2023-04-25T05:05:49.618Z,99995.69
2023-04-25T05:08:35.480Z,100005.84
2023-04-25T05:11:21.962Z,100046.91
2023-04-25T05:13:55.492Z,100088.06
2023-04-25T05:16:42.230Z,100096.97
2023-04-25T05:19:40.374Z,100069.78
2023-04-25T05:22:19.134Z,100049.75
2023-04-25T05:25:12.958Z,100070.63
2023-04-25T05:28:09.902Z,100056.97
2023-04-25T05:30:45.770Z,100075.34
2023-04-25T05:33:28.933Z,100077.44
2023-04-25T05:35:56.319Z,100054.41
2023-04-25T05:38:26.298Z,100069.06
2023-04-25T05:41:12.243Z,100064.81
2023-04-25T05:43:46.311Z,100031.22
2023-04-25T05:46:32.485Z,100014.28
2023-04-25T05:49:22.029Z,100020.41
2023-04-25T05:52:24.649Z,100024.34
2023-04-25T05:55:02.960Z,100018.09
2023-04-25T05:57:32.241Z,100027.72
2023-04-25T06:00:00.587Z,100020.78
2023-04-25T06:02:41.045Z,100015.03
2023-04-25T06:05:10.047Z,100004.13
2023-04-25T06:07:37.799Z,100030.09
2023-04-25T06:10:07.395Z,100029.94
2023-04-25T06:12:34.748Z,100011.56
2023-04-25T06:15:03.505Z,100023.03
2023-04-25T06:17:32.461Z,100027.03
2023-04-25T06:20:00.346Z,100029.81
2023-04-25T06:22:27.738Z,100013.88
2023-04-25T06:24:58.153Z,100026.78
2023-04-25T06:27:25.994Z,100032.13
2023-04-25T06:29:53.709Z,100016.44
2023-04-25T06:32:21.177Z,100031.72
2023-04-25T06:34:48.560Z,100016.84
2023-04-25T06:37:15.985Z,100005.03
2023-04-25T06:39:43.445Z,100017.72
2023-04-25T06:42:11.892Z,100003.41
2023-04-25T06:44:57.296Z,99984.75
2023-04-25T06:47:25.446Z,99995.94
2023-04-25T06:49:52.900Z,100008.50
2023-04-25T06:52:21.378Z,99990.38
2023-04-25T06:54:49.200Z,99974.31
2023-04-25T06:57:24.809Z,99948.41
2023-04-25T06:59:53.319Z,99930.63
2023-04-25T07:02:22.252Z,99951.88
2023-04-25T07:04:52.678Z,99963.91
2023-04-25T07:07:20.444Z,99962.44
2023-04-25T07:09:54.686Z,99965.06
2023-04-25T07:12:22.656Z,99960.41
2023-04-25T07:14:50.190Z,99966.25
2023-04-25T07:17:17.543Z,99986.22
2023-04-25T07:19:45.499Z,99965.50
2023-04-25T07:22:13.026Z,99972.78
2023-04-25T07:24:42.711Z,99969.97
2023-04-25T07:27:13.891Z,99951.94
2023-04-25T07:30:08.200Z,99951.88
2023-04-25T07:32:36.085Z,99967.75
2023-04-25T07:35:04.475Z,99965.13
2023-04-25T07:37:31.924Z,99969.09
2023-04-25T07:40:10.579Z,99966.00
2023-04-25T07:42:42.553Z,99949.84
2023-04-25T07:45:11.242Z,99961.09
2023-04-25T07:47:40.476Z,99947.28
2023-04-25T07:50:08.747Z,99936.31
2023-04-25T07:52:36.291Z,99914.94
2023-04-25T07:55:29.871Z,99912.09
2023-04-25T07:58:09.971Z,99945.94
2023-04-25T08:00:40.368Z,99958.44
2023-04-25T08:03:24.949Z,99948.53
2023-04-25T08:05:53.458Z,99931.06
2023-04-25T08:08:21.334Z,99944.00
2023-04-25T08:10:51.837Z,99964.31
2023-04-25T08:13:19.279Z,99957.03
2023-04-25T08:15:46.886Z,99940.56
2023-04-25T08:18:16.922Z,99946.78
2023-04-25T08:20:46.137Z,99949.50
2023-04-25T08:23:15.328Z,99938.19
2023-04-25T08:25:54.033Z,99973.81
2023-04-25T08:28:25.783Z,99980.16
2023-04-25T08:30:53.398Z,99992.59
2023-04-25T08:33:21.721Z,100011.94
2023-04-25T08:36:02.897Z,99997.34
2023-04-25T08:38:32.512Z,99986.03
2023-04-25T08:41:02.291Z,100001.75
2023-04-25T08:43:31.667Z,99994.03
2023-04-25T08:46:09.642Z,99996.69
2023-04-25T08:48:46.737Z,100004.31
2023-04-25T08:51:23.157Z,100009.66
2023-04-25T08:53:57.854Z,100012.25
2023-04-25T08:56:29.148Z,100012.47
2023-04-25T08:58:57.161Z,100000.28
2023-04-25T09:01:24.990Z,99993.19
2023-04-25T09:03:55.136Z,100000.41
2023-04-25T09:06:24.456Z,100003.81
2023-04-25T09:08:52.126Z,99994.09
2023-04-25T09:11:21.540Z,99997.53
2023-04-25T09:14:11.857Z,99993.13
2023-04-25T09:16:57.830Z,99997.63
2023-04-25T09:19:42.258Z,100005.50
2023-04-25T09:22:24.295Z,99990.13
2023-04-25T09:24:52.344Z,99999.41
2023-04-25T09:27:27.956Z,99995.16
2023-04-25T09:30:17.682Z,100005.63
2023-04-25T09:33:11.682Z,99987.16
2023-04-25T09:35:44.378Z,99991.88
2023-04-25T09:38:19.654Z,100020.75
2023-04-25T09:40:56.646Z,100014.88
2023-04-25T09:43:33.613Z,100007.19
2023-04-25T09:46:01.987Z,100018.84
2023-04-25T09:48:31.264Z,99998.75
2023-04-25T09:51:11.723Z,100015.72
2023-04-25T09:53:41.850Z,100011.84
2023-04-25T09:56:23.263Z,100015.94
2023-04-25T09:58:54.076Z,100022.00
2023-04-25T10:01:22.780Z,100024.41
2023-04-25T10:04:06.138Z,100014.06
2023-04-25T10:06:57.429Z,100013.38
2023-04-25T10:09:27.264Z,100010.50
2023-04-25T10:11:57.541Z,100018.84
2023-04-25T10:14:26.502Z,100004.94
2023-04-25T10:16:56.581Z,100022.19
2023-04-25T10:19:25.476Z,100005.88
2023-04-25T10:22:19.626Z,100009.53
2023-04-25T10:24:48.092Z,100006.31
2023-04-25T10:27:15.690Z,100013.19
2023-04-25T10:29:44.659Z,100008.16
2023-04-25T10:32:12.114Z,99999.75
2023-04-25T10:34:47.898Z,99998.69
2023-04-25T10:37:16.489Z,100003.88
2023-04-25T10:39:44.797Z,100006.28
2023-04-25T10:42:12.673Z,100011.44
2023-04-25T10:44:41.583Z,100019.34
2023-04-25T10:47:10.809Z,100016.19
2023-04-25T10:49:39.389Z,100015.88
2023-04-25T10:52:24.764Z,100018.63
2023-04-25T10:54:57.275Z,100009.63
2023-04-25T10:57:36.790Z,100027.19
2023-04-25T11:00:11.942Z,100025.97
2023-04-25T11:03:03.150Z,100024.78
2023-04-25T11:05:51.090Z,100034.41
2023-04-25T11:08:49.226Z,100008.88
2023-04-25T11:11:20.616Z,100033.69
2023-04-25T11:13:51.404Z,100033.88
2023-04-25T11:16:27.611Z,100025.09
2023-04-25T11:18:58.299Z,100024.88
2023-04-25T11:21:29.096Z,100021.44
2023-04-25T11:24:01.231Z,100010.81
2023-04-25T11:26:29.029Z,100005.44
2023-04-25T11:29:02.838Z,100007.41
2023-04-25T11:31:30.853Z,100019.53
2023-04-25T11:33:58.401Z,100010.41
2023-04-25T11:36:28.516Z,100023.38
2023-04-25T11:39:03.775Z,100025.22
2023-04-25T11:41:32.407Z,100019.94
2023-04-25T11:43:59.944Z,100030.31
2023-04-25T11:46:30.099Z,100018.03
2023-04-25T11:49:02.534Z,100021.91
2023-04-25T11:51:50.888Z,100033.78
2023-04-25T11:54:18.579Z,100019.50
2023-04-25T11:56:50.354Z,100016.13
2023-04-25T11:59:18.004Z,100022.63
2023-04-25T12:01:50.526Z,100024.16
2023-04-25T12:04:26.888Z,100031.00
2023-04-25T12:06:56.439Z,100033.94
2023-04-25T12:09:32.817Z,100019.91
2023-04-25T12:12:05.017Z,100001.56
2023-04-25T12:14:36.196Z,100017.13
2023-04-25T12:17:05.323Z,100013.72
2023-04-25T12:19:35.187Z,100001.38
2023-04-25T12:22:06.435Z,99992.25
2023-04-25T12:24:37.799Z,99998.16
2023-04-25T12:27:09.346Z,100018.66
2023-04-25T12:32:07.506Z,100025.34
2023-04-25T12:34:36.936Z,100034.19
2023-04-25T12:37:04.552Z,100035.22
2023-04-25T12:39:31.963Z,100040.09
2023-04-25T12:42:00.725Z,100052.59
2023-04-25T12:44:28.222Z,100060.88
2023-04-25T12:46:56.036Z,100066.13
2023-04-25T12:49:23.529Z,100059.22
2023-04-25T12:51:52.504Z,100062.56
2023-04-25T12:54:19.899Z,100060.28
2023-04-25T12:56:47.368Z,100069.00
2023-04-25T12:59:15.092Z,100079.19
2023-04-25T13:01:42.451Z,100089.72
2023-04-25T13:04:09.906Z,100097.50
2023-04-25T13:06:37.342Z,100108.88
2023-04-25T13:09:04.693Z,100116.88
2023-04-25T13:11:32.430Z,100114.59
2023-04-25T13:13:59.925Z,100117.28
2023-04-25T13:16:27.875Z,100126.63
2023-04-25T13:18:57.168Z,100125.84
2023-04-25T13:21:24.669Z,100126.47
2023-04-25T13:23:52.326Z,100128.44
2023-04-25T13:26:19.935Z,100129.53
2023-04-25T13:28:47.244Z,100138.47
2023-04-25T13:31:14.560Z,100135.81
2023-04-25T13:33:41.930Z,100137.63
2023-04-25T13:36:09.268Z,100132.91
2023-04-25T13:38:36.538Z,100127.56
2023-04-25T13:41:04.222Z,100120.16
2023-04-25T13:43:33.134Z,100111.00
2023-04-25T13:46:00.524Z,100106.81
2023-04-25T13:48:27.999Z,100109.19
2023-04-25T13:50:55.449Z,100126.97
2023-04-25T13:53:22.776Z,100145.53
2023-04-25T13:55:50.135Z,100144.28
2023-04-25T13:58:17.425Z,100142.88
2023-04-25T14:00:47.008Z,100146.88
2023-04-25T14:03:14.396Z,100142.72
2023-04-25T14:05:42.062Z,100142.56
2023-04-25T14:08:10.998Z,100153.69
2023-04-25T14:10:38.811Z,100145.13
2023-04-25T14:13:07.345Z,100158.03
2023-04-25T14:15:36.014Z,100165.44
2023-04-25T14:18:03.684Z,100179.44
2023-04-25T14:20:31.282Z,100181.69
2023-04-25T14:22:59.406Z,100188.06
2023-04-25T14:25:27.017Z,100188.88
2023-04-25T14:27:54.458Z,100186.22
2023-04-25T14:30:22.570Z,100178.06
2023-04-25T14:32:50.931Z,100163.06
2023-04-25T14:35:22.950Z,100142.66
2023-04-25T14:37:51.982Z,100118.94
2023-04-25T14:40:19.462Z,100111.69
2023-04-25T14:42:47.347Z,100118.56
2023-04-25T14:45:18.995Z,100114.47
2023-04-25T14:47:46.949Z,100092.88
2023-04-25T14:50:14.483Z,100102.94
2023-04-25T14:52:41.897Z,100094.81
2023-04-25T14:55:10.110Z,100101.22
2023-04-25T14:57:37.661Z,100097.63
2023-04-25T15:00:07.976Z,100089.00
2023-04-25T15:02:36.326Z,100096.22
2023-04-25T15:05:04.436Z,100109.09
2023-04-25T15:07:32.239Z,100104.28
2023-04-25T15:09:59.719Z,100095.81
2023-04-25T15:12:29.199Z,100112.00
2023-04-25T15:14:56.635Z,100123.22
2023-04-25T15:17:24.035Z,100115.13
2023-04-25T15:19:51.413Z,100111.34
2023-04-25T15:22:19.006Z,100113.69
2023-04-25T15:24:46.388Z,100119.16
2023-04-25T15:27:14.228Z,100120.88
2023-04-25T15:29:41.631Z,100133.19
2023-04-25T15:32:09.119Z,100127.97
2023-04-25T15:34:36.733Z,100123.22
2023-04-25T15:37:04.420Z,100135.38
2023-04-25T15:39:32.078Z,100133.19
2023-04-25T15:41:59.518Z,100126.72
2023-04-25T15:44:27.022Z,100142.81
2023-04-25T15:46:55.268Z,100141.34
2023-04-25T15:49:23.060Z,100139.47
2023-04-25T15:51:51.490Z,100140.31
2023-04-25T15:54:19.105Z,100144.38
2023-04-25T15:56:47.180Z,100146.72
2023-04-25T15:59:14.692Z,100148.50
2023-04-25T16:01:42.619Z,100154.25
2023-04-25T16:04:10.514Z,100157.66
2023-04-25T16:06:38.819Z,100148.84
2023-04-25T16:09:07.047Z,100145.69
2023-04-25T16:11:34.524Z,100142.94
2023-04-25T16:14:02.104Z,100140.75
2023-04-25T16:16:29.548Z,100139.63
2023-04-25T16:18:56.969Z,100143.50
2023-04-25T16:21:24.307Z,100137.94
2023-04-25T16:23:51.925Z,100129.78
2023-04-25T16:26:19.413Z,100131.53
2023-04-25T16:28:46.801Z,100131.13
2023-04-25T16:31:14.133Z,100129.63
2023-04-25T16:33:41.535Z,100117.34
2023-04-25T16:36:09.407Z,100115.41
2023-04-25T16:38:39.650Z,100117.66
2023-04-25T16:41:08.122Z,100110.94
2023-04-25T16:43:36.328Z,100112.75
2023-04-25T16:46:03.725Z,100105.75
2023-04-25T16:48:31.291Z,100114.25
2023-04-25T16:50:58.866Z,100114.31
2023-04-25T16:53:26.814Z,100105.44
2023-04-25T16:55:54.233Z,100108.88
2023-04-25T16:58:21.917Z,100114.91
2023-04-25T17:00:49.379Z,100116.59
2023-04-25T17:03:16.946Z,100113.91
2023-04-25T17:05:44.440Z,100126.13
2023-04-25T17:08:11.984Z,100124.72
2023-04-25T17:10:39.339Z,100137.88
2023-04-25T17:13:06.851Z,100128.72
2023-04-25T17:15:34.597Z,100132.31
2023-04-25T17:18:02.113Z,100136.44
2023-04-25T17:20:29.617Z,100142.75
2023-04-25T17:22:57.522Z,100130.25
2023-04-25T17:25:24.985Z,100143.53
2023-04-25T17:27:52.377Z,100133.63
2023-04-25T17:30:20.013Z,100147.94
2023-04-25T17:32:47.430Z,100149.88
2023-04-25T17:35:17.041Z,100149.22
2023-04-25T17:37:45.394Z,100148.38
2023-04-25T17:40:13.013Z,100137.00
2023-04-25T17:42:41.382Z,100151.53
2023-04-25T17:45:09.575Z,100145.03
2023-04-25T17:47:37.070Z,100149.75
2023-04-25T17:50:05.480Z,100145.41
2023-04-25T17:52:33.505Z,100153.78
2023-04-25T17:55:00.929Z,100159.31
2023-04-25T17:57:28.323Z,100154.25
2023-04-25T17:59:56.997Z,100151.84
2023-04-25T18:02:24.510Z,100150.72
2023-04-25T18:04:52.374Z,100169.69
2023-04-25T18:07:19.728Z,100178.06
2023-04-25T18:09:47.105Z,100174.91
2023-04-25T18:12:15.310Z,100165.69
2023-04-25T18:14:42.784Z,100170.09
2023-04-25T18:17:12.391Z,100182.88
2023-04-25T18:19:39.748Z,100185.38
2023-04-25T18:22:07.078Z,100187.91
2023-04-25T18:24:34.488Z,100185.97
2023-04-25T18:27:05.819Z,100186.56
2023-04-25T18:29:34.165Z,100189.56
2023-04-25T18:32:02.486Z,100195.09
2023-04-25T18:34:30.662Z,100207.69
2023-04-25T18:36:58.148Z,100216.13
2023-04-25T18:39:27.286Z,100214.31
2023-04-25T18:42:13.741Z,100226.22
2023-04-25T18:44:42.048Z,100239.88
2023-04-25T18:47:10.906Z,100235.47
2023-04-25T18:49:38.672Z,100237.03
2023-04-25T18:52:10.795Z,100241.59
2023-04-25T18:54:41.600Z,100242.44
2023-04-25T18:57:14.376Z,100244.13
2023-04-25T18:59:43.059Z,100253.63
2023-04-25T19:02:10.731Z,100256.47
2023-04-25T19:04:38.566Z,100255.22
2023-04-25T19:07:06.022Z,100262.94
2023-04-25T19:09:33.308Z,100272.56
2023-04-25T19:12:01.844Z,100288.16
2023-04-25T19:14:33.732Z,100276.63
2023-04-25T19:17:01.169Z,100293.78
2023-04-25T19:19:28.571Z,100298.13
2023-04-25T19:21:56.249Z,100297.47
2023-04-25T19:24:23.662Z,100303.81
2023-04-25T19:26:50.966Z,100312.97
2023-04-25T19:29:18.354Z,100315.81
2023-04-25T19:31:45.762Z,100321.94
2023-04-25T19:34:14.122Z,100327.34
2023-04-25T19:36:42.439Z,100332.69
2023-04-25T19:39:10.908Z,100335.53
2023-04-25T19:41:38.754Z,100323.94
2023-04-25T19:44:09.133Z,100331.88
2023-04-25T19:46:37.253Z,100336.06
2023-04-25T19:49:12.133Z,100344.09
2023-04-25T19:51:39.561Z,100344.97
2023-04-25T19:54:06.944Z,100340.16
2023-04-25T19:56:34.542Z,100342.81
2023-04-25T19:59:02.114Z,100343.69
2023-04-25T20:01:30.400Z,100339.28
2023-04-25T20:03:57.897Z,100347.06
2023-04-25T20:06:25.494Z,100340.03
2023-04-25T20:08:56.388Z,100340.28
2023-04-25T20:11:23.899Z,100340.16
2023-04-25T20:13:51.513Z,100343.88
2023-04-25T20:16:21.858Z,100345.66
2023-04-25T20:18:50.316Z,100349.22
2023-04-25T20:21:18.713Z,100353.06
2023-04-25T20:23:46.335Z,100344.25
2023-04-25T20:26:14.130Z,100346.00
2023-04-25T20:28:41.989Z,100342.59
2023-04-25T20:31:10.950Z,100348.13
2023-04-25T20:33:38.861Z,100342.97
2023-04-25T20:36:06.337Z,100346.31
2023-04-25T20:38:33.717Z,100342.97
2023-04-25T20:41:01.194Z,100346.63
2023-04-25T20:43:29.238Z,100350.69
2023-04-25T20:46:00.502Z,100347.31
2023-04-25T20:48:27.840Z,100352.34
2023-04-25T20:50:55.217Z,100352.53
2023-04-25T20:53:23.147Z,100352.59
2023-04-25T20:55:50.500Z,100352.72
2023-04-25T20:58:18.172Z,100357.25
2023-04-25T21:00:47.494Z,100357.97
2023-04-25T21:03:15.998Z,100358.22
2023-04-25T21:05:43.520Z,100361.00
2023-04-25T21:08:10.826Z,100353.44
2023-04-25T21:10:38.190Z,100357.22
2023-04-25T21:13:05.943Z,100353.25
2023-04-25T21:15:33.834Z,100356.63
2023-04-25T21:18:01.964Z,100349.47
2023-04-25T21:20:29.514Z,100350.34
2023-04-25T21:22:56.813Z,100344.22
2023-04-25T21:25:30.003Z,100348.81
2023-04-25T21:27:58.525Z,100343.66
2023-04-25T21:30:26.465Z,100342.66
2023-04-25T21:32:54.024Z,100346.38
2023-04-25T21:35:22.488Z,100350.09
2023-04-25T21:37:50.561Z,100345.75
2023-04-25T21:40:18.479Z,100346.69
2023-04-25T21:42:51.942Z,100347.72
2023-04-25T21:45:20.169Z,100343.22
2023-04-25T21:47:48.496Z,100342.09
2023-04-25T21:50:17.198Z,100350.41
2023-04-25T21:52:44.623Z,100355.13
2023-04-25T21:55:12.134Z,100353.44
2023-04-25T21:57:39.630Z,100362.28
2023-04-25T22:00:22.049Z,100357.41
2023-04-25T22:02:49.627Z,100356.44
2023-04-25T22:05:20.272Z,100352.09
2023-04-25T22:07:48.321Z,100349.38
2023-04-25T22:10:15.946Z,100353.66
2023-04-25T22:12:43.540Z,100349.38
2023-04-25T22:15:12.851Z,100357.03
2023-04-25T22:17:40.509Z,100350.19
2023-04-25T22:20:13.335Z,100353.28
2023-04-25T22:22:42.103Z,100350.88
2023-04-25T22:25:11.980Z,100350.31
2023-04-25T22:27:43.792Z,100351.41
2023-04-25T22:30:15.018Z,100359.44
2023-04-25T22:32:43.799Z,100341.13
2023-04-25T22:35:12.122Z,100352.28
2023-04-25T22:37:41.388Z,100349.44
2023-04-25T22:40:09.261Z,100353.00
2023-04-25T22:42:38.566Z,100342.38
2023-04-25T22:45:10.340Z,100351.00
2023-04-25T22:47:38.779Z,100357.19
2023-04-25T22:50:08.512Z,100358.41
2023-04-25T22:52:35.943Z,100365.41
2023-04-25T22:55:03.586Z,100355.63
2023-04-25T22:57:33.065Z,100355.13
2023-04-25T23:00:01.668Z,100352.50
2023-04-25T23:02:29.486Z,100348.09
2023-04-25T23:04:56.904Z,100349.84
2023-04-25T23:07:24.296Z,100346.13
2023-04-25T23:09:52.086Z,100353.63
2023-04-25T23:12:19.408Z,100355.44
2023-04-25T23:14:51.943Z,100354.66
2023-04-25T23:17:20.375Z,100352.97
2023-04-25T23:19:48.416Z,100358.47
2023-04-25T23:22:15.814Z,100363.47
2023-04-25T23:24:43.632Z,100362.91
2023-04-25T23:27:11.032Z,100369.31
2023-04-25T23:29:40.533Z,100368.41
2023-04-25T23:32:08.848Z,100366.31
2023-04-25T23:34:36.712Z,100368.97
2023-04-25T23:37:04.532Z,100371.88
2023-04-25T23:39:31.830Z,100365.66
2023-04-25T23:42:00.421Z,100362.53
2023-04-25T23:44:27.797Z,100367.13
2023-04-25T23:47:05.544Z,100375.84
2023-04-25T23:49:33.734Z,100371.38
2023-04-25T23:52:01.209Z,100344.50
2023-04-25T23:54:28.577Z,100363.38
2023-04-25T23:56:55.963Z,100356.41
2023-04-25T23:59:23.384Z,100360.34
